WetterOnline ( https://www.wetteronline.de )

Wetter aktuell Bad Oeynhausen

Aktuelles Wetter: Bad Salzuflen (139m)

6-stündlich | Neueste Meldungen
Ortszeit Temperatur Wetter
Sa, 15.06. 14:00 17.2° C wolkig
Sa, 15.06. 8:00 13.7° C leichter Regen
Sa, 15.06. 2:00 15.1° C wolkig
Fr, 14.06. 20:00 17.6° C wolkig
Fr, 14.06. 14:00 17.5° C bedeckt
Fr, 14.06. 8:00 13.5° C bewölkt
Fr, 14.06. 2:00 13.5° C bewölkt
Do, 13.06. 20:00 16.7° C bedeckt
Ortszeit Temperatur Wetter
Sa, 15.06. 16:30 17.0° C bewölkt
Sa, 15.06. 16:20 17.0° C bewölkt
Sa, 15.06. 16:10 17.7° C bewölkt
Sa, 15.06. 16:00 16.6° C bewölkt
Sa, 15.06. 15:50 16.6° C bewölkt
Sa, 15.06. 15:40 17.8° C bedeckt
Sa, 15.06. 15:30 17.2° C bewölkt
Sa, 15.06. 15:00 17.9° C bewölkt
Sa, 15.06. 14:30 17.0° C leicht bewölkt
Sa, 15.06. 14:00 17.2° C wolkig
Sa, 15.06. 13:30 14.7° C bewölkt
Ortszeit Relative Feuchte Sichtweite
Sa, 15.06. 14:00 55% 60 km
Sa, 15.06. 8:00 92% 35 km
Sa, 15.06. 2:00 83% 60 km
Fr, 14.06. 20:00 68% >70 km
Fr, 14.06. 14:00 57% 65 km
Fr, 14.06. 8:00 68% 60 km
Fr, 14.06. 2:00 62% >70 km
Do, 13.06. 20:00 49% 55 km
Ortszeit Relative Feuchte Sichtweite
Sa, 15.06. 16:30 50% 50 km
Sa, 15.06. 16:20 50% -
Sa, 15.06. 16:10 51% -
Sa, 15.06. 16:00 53% 60 km
Sa, 15.06. 15:50 53% -
Sa, 15.06. 15:40 52% -
Sa, 15.06. 15:30 51% 60 km
Sa, 15.06. 15:00 51% >70 km
Sa, 15.06. 14:30 51% 60 km
Sa, 15.06. 14:00 55% 60 km
Sa, 15.06. 13:30 71% 65 km
Ortszeit Niederschlagsmenge Niederschlagsart
Sa, 15.06. 14:00 4 l/m2 in 6 Std. Regen
Sa, 15.06. 8:00 2 l/m2 in 12 Std. Regen
Sa, 15.06. 2:00 0.0 l/m2 in 6 Std. -
Fr, 14.06. 20:00 0.1 l/m2 in 12 Std. Regen
Fr, 14.06. 14:00 0.1 l/m2 in 6 Std. Regen
Fr, 14.06. 8:00 0.1 l/m2 in 12 Std. Regen
Fr, 14.06. 2:00 0.0 l/m2 in 6 Std. -
Do, 13.06. 20:00 0.0 l/m2 in 12 Std. -
Ortszeit Niederschlagsmenge Niederschlagsart
Sa, 15.06. 16:30 0.0 l/m2 in 30 Min -
Sa, 15.06. 16:20 keine Meldung -
Sa, 15.06. 16:10 keine Meldung -
Sa, 15.06. 16:00 0.0 l/m2 in 1 Std. -
Sa, 15.06. 15:50 keine Meldung -
Sa, 15.06. 15:40 keine Meldung -
Sa, 15.06. 15:30 0.0 l/m2 in 30 Min -
Sa, 15.06. 15:00 0.0 l/m2 in 1 Std. -
Sa, 15.06. 14:30 0.0 l/m2 in 30 Min -
Sa, 15.06. 14:00 0.1 l/m2 in 1 Std. Regen
Sa, 15.06. 13:30 <0.05 l/m2 in 30 Min Schneeregen
Ortszeit Stärke Spitze Richtung
km/h Bft. km/h Grad Sektor
Sa, 15.06. 14:00 20 4 56 230° SW
Sa, 15.06. 8:00 9 2 30 200° S
Sa, 15.06. 2:00 14 3 32 150° SO
Fr, 14.06. 20:00 11 2 36 150° SO
Fr, 14.06. 14:00 14 3 32 190° S
Fr, 14.06. 8:00 4 1 18 210° SW
Fr, 14.06. 2:00 4 1 11 150° SO
Do, 13.06. 20:00 4 1 22 190° S
Ortszeit Stärke Spitze Richtung
km/h Bft. km/h Grad Sektor
Sa, 15.06. 16:30 22 4 40 230° SW
Sa, 15.06. 16:20 22 4 - 230° SW
Sa, 15.06. 16:10 25 4 - 220° SW
Sa, 15.06. 16:00 18 3 43 220° SW
Sa, 15.06. 15:50 18 3 - 220° SW
Sa, 15.06. 15:40 18 3 - 210° SW
Sa, 15.06. 15:30 20 4 44 230° SW
Sa, 15.06. 15:00 18 3 43 220° SW
Sa, 15.06. 14:30 26 4 44 200° S
Sa, 15.06. 14:00 20 4 46 230° SW
Sa, 15.06. 13:30 17 3 46 230° SW
Ortszeit Untergrenze Bedeckung Gattung
total tief tief mittel hoch
Sa, 15.06. 14:00 1140 m 6/8 6/8 - - -
Sa, 15.06. 8:00 930 m 7/8 7/8 - - -
Sa, 15.06. 2:00 2100 m 7/8 5/8 - - -
Fr, 14.06. 20:00 1140 m 7/8 1/8 - - -
Fr, 14.06. 14:00 1410 m 8/8 8/8 - - -
Fr, 14.06. 8:00 1800 m 7/8 7/8 - - -
Fr, 14.06. 2:00 2100 m 8/8 7/8 - - -
Do, 13.06. 20:00 6000 m 8/8 8/8 - - -
Ortszeit Bedeckungsgrad in Achtel und Wolkenuntergrenze
Sa, 15.06. 16:30 4(1500m) 7(2100m) 7(7200m)
Sa, 15.06. 16:20 4(1500m) 7(2100m) 7(7200m)
Sa, 15.06. 16:10 7
Sa, 15.06. 16:00 3(1470m) 5(1500m) 7(2100m)
Sa, 15.06. 15:50 3(1470m) 5(1500m) 7(2100m)
Sa, 15.06. 15:40 8
Sa, 15.06. 15:30 1(1440m) 7(1800m)
Sa, 15.06. 15:00 4(1500m) 7(1800m) 7(9000m)
Sa, 15.06. 14:30 2(1410m) 4(1800m)
Sa, 15.06. 14:00 2(1140m) 5(1500m) 6(1800m)
Sa, 15.06. 13:30 2(1110m) 6(1500m) 7(2100m)
Ortszeit Luftdruck NN (hPa) Tendenz (hPa in 3 Std.)
Sa, 15.06. 14:00 1005 + 1,6
Sa, 15.06. 8:00 1002 + 0,3
Sa, 15.06. 2:00 1004 - 3,0
Fr, 14.06. 20:00 1007 - 1,2
Fr, 14.06. 14:00 1008 - 0,8
Fr, 14.06. 8:00 1010 - 0,4
Fr, 14.06. 2:00 1013 - 1,5
Do, 13.06. 20:00 1015 - 1,5
Ortszeit Luftdruck NN (hPa) Tendenz (hPa in 3 Std.)
Sa, 15.06. 16:30 1007 + 1,5
Sa, 15.06. 16:20 1007 keine Meldung
Sa, 15.06. 16:10 1006 keine Meldung
Sa, 15.06. 16:00 1006 + 1,6
Sa, 15.06. 15:50 1006 keine Meldung
Sa, 15.06. 15:40 1006 keine Meldung
Sa, 15.06. 15:30 1006 + 1,4
Sa, 15.06. 15:00 1006 + 1,7
Sa, 15.06. 14:30 1005 + 1,6
Sa, 15.06. 14:00 1005 + 1,6
Sa, 15.06. 13:30 1005 + 1,6
Ortszeit Schneehöhe (cm)
Sa, 15.06. 14:00 0
Sa, 15.06. 8:00 0
Sa, 15.06. 2:00 0
Fr, 14.06. 20:00 0
Fr, 14.06. 14:00 0
Fr, 14.06. 8:00 0
Fr, 14.06. 2:00 0
Do, 13.06. 20:00 0
Ortszeit Schneehöhe (cm)
Sa, 15.06. 16:30 0
Sa, 15.06. 16:20 0
Sa, 15.06. 16:10 -
Sa, 15.06. 16:00 0
Sa, 15.06. 15:50 0
Sa, 15.06. 15:40 -
Sa, 15.06. 15:30 0
Sa, 15.06. 15:00 0
Sa, 15.06. 14:30 0
Sa, 15.06. 14:00 0
Sa, 15.06. 13:30 0
Link zu dieser Seite / Seite empfehlen

Das Wetter in ...